Sterling, Idaho
Current Conditions -  °F | °C
As of 8:53 PM on Friday 24 Oct 2014 (Local Time) from KPIH Reporting Station
Clear Clear  
Wind Chill: 17°   Ceiling: Unl
Heat Index: 17°   Visibility: 10mi
Dew Point: -3°   Wind: 13mph
Humidity: 25%   Direction: 180°S
Pressure: 30.06"   Gusts: NA
Location:  43.1849°N, 112.825°W
Report Text: KPIH 250253Z 18011KT 10SM CLR 17/M03 A3006 RMK AO2 SLP156 T01721033 55003
Loading
Personal Weather Stations






























Interactive Weather Map
Tropical Storm Tracking
New forecast layout! Learn more

10-Day Weather Forecast

Advertisements
Track Severe Weather on mobile